Wetterdaten: Woche 06.02.06 - 12.02.06 (KW6)
Datum Zeit Temperatur Luftfeuchte Luftdruck Niederschlag Wind Richtung Sonne Solar Taupunkt Windchill
06.02.2006 00:00 -2.2 C 66 % 1029.3 hPa 0.0 l/m 0.2 km/h (0 Bft) N 0.00 h 0 W/m -7.7 C -2.2 C
06.02.2006 01:00 -2.2 C 67 % 1029.3 hPa 0.0 l/m 0.1 km/h (0 Bft) N 0.00 h 0 W/m -7.4 C -2.2 C
06.02.2006 02:00 -2.3 C 69 % 1029.3 hPa 0.0 l/m 0.0 km/h (0 Bft) N 0.00 h 0 W/m -7.1 C -2.3 C
06.02.2006 03:00 -2.5 C 73 % 1029.4 hPa 0.0 l/m 0.3 km/h (0 Bft) SO 0.00 h 0 W/m -6.6 C -2.5 C
06.02.2006 04:00 -2.4 C 73 % 1029.4 hPa 0.0 l/m 0.2 km/h (0 Bft) SO 0.00 h 0 W/m -6.6 C -2.4 C
06.02.2006 05:00 -2.4 C 74 % 1029.4 hPa 0.0 l/m 0.1 km/h (0 Bft) O-SO 0.00 h 0 W/m -6.4 C -2.4 C
06.02.2006 06:00 -2.5 C 74 % 1029.4 hPa 0.0 l/m 0.0 km/h (0 Bft) N 0.00 h 0 W/m -6.4 C -2.5 C
06.02.2006 07:00 -2.5 C 75 % 1029.4 hPa 0.0 l/m 0.0 km/h (0 Bft) N 0.00 h 3 W/m -6.3 C -2.5 C
06.02.2006 08:00 -2.3 C 75 % 1029.3 hPa 0.0 l/m 0.0 km/h (0 Bft) N 0.00 h 17 W/m -6.0 C -2.3 C
06.02.2006 09:00 -1.5 C 72 % 1029.2 hPa 0.0 l/m 0.4 km/h (0 Bft) SO 0.00 h 71 W/m -5.9 C -1.5 C
06.02.2006 10:00 -0.8 C 68 % 1029.1 hPa 0.0 l/m 0.5 km/h (0 Bft) S-SW 0.00 h 153 W/m -6.0 C -0.8 C
06.02.2006 11:00 0.1 C 64 % 1029.0 hPa 0.0 l/m 1.7 km/h (1 Bft) NW 0.10 h 234 W/m -5.8 C 0.0 C
06.02.2006 12:00 0.7 C 63 % 1028.9 hPa 0.0 l/m 2.4 km/h (1 Bft) W-NW 0.83 h 314 W/m -5.5 C 0.1 C
06.02.2006 13:00 2.1 C 55 % 1028.1 hPa 0.0 l/m 1.1 km/h (1 Bft) W-NW 0.60 h 290 W/m -5.9 C 2.0 C
06.02.2006 14:00 3.4 C 51 % 1027.4 hPa 0.0 l/m 1.6 km/h (1 Bft) W 0.90 h 254 W/m -5.8 C 3.1 C
06.02.2006 15:00 3.4 C 52 % 1027.5 hPa 0.0 l/m 0.3 km/h (0 Bft) N 0.00 h 130 W/m -5.6 C 3.4 C
06.02.2006 16:00 3.2 C 53 % 1027.5 hPa 0.0 l/m 0.0 km/h (0 Bft) N 0.00 h 56 W/m -5.4 C 3.2 C
06.02.2006 17:00 2.1 C 57 % 1027.6 hPa 0.0 l/m 0.9 km/h (0 Bft) N-NW 0.00 h 18 W/m -5.4 C 2.1 C
06.02.2006 18:00 1.2 C 63 % 1027.8 hPa 0.0 l/m 0.1 km/h (0 Bft) N 0.00 h 0 W/m -5.0 C 1.2 C
06.02.2006 19:00 0.6 C 67 % 1028.0 hPa 0.0 l/m 0.2 km/h (0 Bft) N-NW 0.00 h 0 W/m -4.9 C 0.6 C
06.02.2006 20:00 0.6 C 68 % 1028.3 hPa 0.0 l/m 1.0 km/h (0 Bft) NO 0.00 h 0 W/m -4.5 C 0.6 C
06.02.2006 21:00 1.0 C 68 % 1028.7 hPa 0.0 l/m 0.3 km/h (0 Bft) W-SW 0.00 h 0 W/m -4.3 C 1.0 C
06.02.2006 22:00 0.7 C 69 % 1028.2 hPa 0.0 l/m 0.4 km/h (0 Bft) NW 0.00 h 0 W/m -4.3 C 0.7 C
06.02.2006 23:00 0.6 C 71 % 1028.0 hPa 0.0 l/m 0.0 km/h (0 Bft) N 0.00 h 0 W/m -4.0 C 0.6 C
07.02.2006 00:00 0.7 C 70 % 1027.8 hPa 0.0 l/m 2.0 km/h (1 Bft) SO 0.00 h 0 W/m -4.0 C 0.2 C
07.02.2006 01:00 0.8 C 70 % 1027.8 hPa 0.0 l/m 2.4 km/h (1 Bft) SO 0.00 h 0 W/m -4.2 C 0.1 C
07.02.2006 02:00 0.5 C 72 % 1027.9 hPa 0.0 l/m 0.6 km/h (0 Bft) SO 0.00 h 0 W/m -4.0 C 0.4 C
07.02.2006 03:00 0.5 C 72 % 1027.8 hPa 0.0 l/m 3.4 km/h (1 Bft) SO 0.00 h 0 W/m -4.0 C -0.2 C
07.02.2006 04:00 0.5 C 73 % 1027.4 hPa 0.0 l/m 1.5 km/h (1 Bft) O-SO 0.00 h 0 W/m -3.8 C 0.1 C
07.02.2006 05:00 0.6 C 72 % 1026.8 hPa 0.0 l/m 0.9 km/h (0 Bft) SO 0.00 h 0 W/m -3.9 C 0.4 C
07.02.2006 06:00 0.6 C 71 % 1026.8 hPa 0.0 l/m 1.8 km/h (1 Bft) SW 0.00 h 0 W/m -4.0 C 0.4 C
07.02.2006 07:00 0.8 C 70 % 1026.7 hPa 0.0 l/m 3.0 km/h (1 Bft) W 0.00 h 1 W/m -4.1 C 0.1 C
07.02.2006 08:00 1.1 C 68 % 1026.8 hPa 0.0 l/m 0.8 km/h (0 Bft) W 0.00 h 11 W/m -4.1 C 1.0 C
07.02.2006 09:00 1.5 C 67 % 1026.7 hPa 0.0 l/m 1.2 km/h (1 Bft) W 0.00 h 20 W/m -3.9 C 1.3 C
07.02.2006 10:00 2.1 C 75 % 1026.6 hPa 0.0 l/m 10.0 km/h (2 Bft) W 0.00 h 79 W/m -1.9 C -0.4 C
07.02.2006 11:00 3.1 C 70 % 1026.4 hPa 0.0 l/m 9.1 km/h (2 Bft) W-NW 0.00 h 70 W/m -1.9 C 1.0 C
07.02.2006 12:00 3.3 C 69 % 1026.4 hPa 0.0 l/m 17.7 km/h (3 Bft) W-NW 0.00 h 95 W/m -1.9 C -0.6 C
07.02.2006 13:00 3.3 C 67 % 1025.7 hPa 0.0 l/m 12.4 km/h (3 Bft) W-NW 0.00 h 58 W/m -2.2 C 0.2 C
07.02.2006 14:00 3.2 C 67 % 1025.0 hPa 0.0 l/m 4.8 km/h (1 Bft) W-NW 0.00 h 54 W/m -2.2 C 2.2 C
07.02.2006 15:00 3.2 C 67 % 1024.4 hPa 0.0 l/m 2.9 km/h (1 Bft) W-NW 0.00 h 31 W/m -2.4 C 2.7 C
07.02.2006 16:00 3.2 C 67 % 1024.4 hPa 0.0 l/m 0.6 km/h (0 Bft) W 0.00 h 24 W/m -2.3 C 3.2 C
07.02.2006 17:00 3.1 C 67 % 1024.4 hPa 0.0 l/m 2.5 km/h (1 Bft) W-NW 0.00 h 15 W/m -2.5 C 2.5 C
07.02.2006 18:00 2.8 C 70 % 1024.4 hPa 0.0 l/m 1.7 km/h (1 Bft) W-NW 0.00 h 0 W/m -2.2 C 2.6 C
07.02.2006 19:00 2.5 C 73 % 1024.5 hPa 0.0 l/m 0.6 km/h (0 Bft) SO 0.00 h 0 W/m -1.8 C 2.4 C
07.02.2006 20:00 2.4 C 76 % 1024.3 hPa 0.0 l/m 5.0 km/h (1 Bft) W-NW 0.00 h 0 W/m -1.4 C 1.2 C
07.02.2006 21:00 2.1 C 78 % 1023.5 hPa 0.0 l/m 6.4 km/h (2 Bft) W-NW 0.00 h 0 W/m -1.3 C 0.5 C
07.02.2006 22:00 1.7 C 79 % 1023.0 hPa 0.0 l/m 1.3 km/h (1 Bft) O-SO 0.00 h 0 W/m -1.7 C 1.3 C
07.02.2006 23:00 1.5 C 79 % 1022.4 hPa 0.0 l/m 0.4 km/h (0 Bft) O-SO 0.00 h 0 W/m -1.7 C 1.4 C
08.02.2006 00:00 1.4 C 79 % 1021.5 hPa 0.0 l/m 2.6 km/h (1 Bft) O-SO 0.00 h 0 W/m -1.9 C 0.9 C
08.02.2006 01:00 1.5 C 76 % 1020.5 hPa 0.0 l/m 3.0 km/h (1 Bft) SO 0.00 h 0 W/m -2.3 C 1.0 C
08.02.2006 02:00 1.2 C 77 % 1019.5 hPa 0.0 l/m 1.4 km/h (1 Bft) SO 0.00 h 0 W/m -2.3 C 1.1 C
08.02.2006 03:00 1.3 C 76 % 1018.5 hPa 0.0 l/m 3.5 km/h (1 Bft) SO 0.00 h 0 W/m -2.5 C 0.6 C
08.02.2006 04:00 1.5 C 74 % 1017.7 hPa 0.0 l/m 1.7 km/h (1 Bft) SO 0.00 h 0 W/m -2.7 C 1.1 C
08.02.2006 05:00 1.4 C 73 % 1016.9 hPa 0.0 l/m 0.3 km/h (0 Bft) SO 0.00 h 0 W/m -2.8 C 1.4 C
08.02.2006 06:00 1.3 C 71 % 1015.6 hPa 0.0 l/m 0.1 km/h (0 Bft) N 0.00 h 0 W/m -3.2 C 1.3 C
08.02.2006 07:00 1.4 C 71 % 1015.0 hPa 0.0 l/m 0.2 km/h (0 Bft) W 0.00 h 2 W/m -3.2 C 1.4 C
08.02.2006 08:00 1.7 C 68 % 1014.2 hPa 0.0 l/m 1.4 km/h (1 Bft) W 0.00 h 9 W/m -3.6 C 1.4 C
08.02.2006 09:00 1.9 C 69 % 1014.0 hPa 0.0 l/m 1.5 km/h (1 Bft) W-NW 0.00 h 19 W/m -3.2 C 1.6 C
08.02.2006 10:00 2.8 C 56 % 1012.6 hPa 0.0 l/m 8.3 km/h (2 Bft) SW 0.00 h 41 W/m -5.0 C 0.6 C
08.02.2006 11:00 3.2 C 55 % 1011.9 hPa 0.0 l/m 10.0 km/h (2 Bft) S 0.00 h 44 W/m -4.9 C 0.7 C
08.02.2006 12:00 3.1 C 58 % 1011.1 hPa 0.0 l/m 11.0 km/h (2 Bft) S-SW 0.00 h 57 W/m -4.5 C 0.3 C
08.02.2006 13:00 2.3 C 73 % 1010.7 hPa 0.0 l/m 12.0 km/h (2 Bft) W 0.00 h 65 W/m -2.1 C -0.8 C
08.02.2006 14:00 1.9 C 81 % 1010.0 hPa 0.3 l/m 8.0 km/h (2 Bft) W 0.00 h 44 W/m -1.0 C -0.3 C
08.02.2006 15:00 1.3 C 88 % 1010.3 hPa 1.6 l/m 2.1 km/h (1 Bft) W 0.00 h 21 W/m -0.5 C 1.0 C
08.02.2006 16:00 1.5 C 92 % 1011.1 hPa 0.3 l/m 12.0 km/h (2 Bft) W-NW 0.00 h 15 W/m 0.3 C -1.2 C
08.02.2006 17:00 2.2 C 88 % 1011.0 hPa 0.3 l/m 18.6 km/h (3 Bft) W-NW 0.00 h 5 W/m 0.5 C -2.1 C
08.02.2006 18:00 2.3 C 86 % 1011.4 hPa 0.0 l/m 8.8 km/h (2 Bft) W 0.00 h 0 W/m 0.3 C -0.0 C
08.02.2006 19:00 1.6 C 88 % 1012.1 hPa 1.0 l/m 4.6 km/h (1 Bft) SO 0.00 h 0 W/m -0.2 C 0.3 C
08.02.2006 20:00 0.8 C 91 % 1012.2 hPa 1.3 l/m 5.7 km/h (1 Bft) SO 0.00 h 0 W/m -0.5 C -0.9 C
08.02.2006 21:00 0.9 C 93 % 1012.2 hPa 0.3 l/m 2.3 km/h (1 Bft) SO 0.00 h 0 W/m -0.0 C 0.4 C
08.02.2006 22:00 1.2 C 95 % 1012.2 hPa 0.3 l/m 4.5 km/h (1 Bft) W 0.00 h 0 W/m 0.4 C -0.0 C
08.02.2006 23:00 1.3 C 96 % 1012.2 hPa 0.3 l/m 12.9 km/h (3 Bft) W-NW 0.00 h 0 W/m 0.7 C -2.2 C
09.02.2006 00:00 1.6 C 96 % 1012.1 hPa 0.0 l/m 14.2 km/h (3 Bft) W-NW 0.00 h 0 W/m 0.9 C -2.2 C
09.02.2006 01:00 1.6 C 94 % 1012.1 hPa 0.0 l/m 22.6 km/h (4 Bft) W-NW 0.00 h 0 W/m 0.7 C -3.5 C
09.02.2006 02:00 1.5 C 91 % 1012.1 hPa 0.0 l/m 26.0 km/h (4 Bft) W-NW 0.00 h 0 W/m 0.2 C -4.1 C
09.02.2006 03:00 1.8 C 89 % 1012.7 hPa 0.0 l/m 18.1 km/h (3 Bft) W-NW 0.00 h 0 W/m 0.1 C -2.7 C
09.02.2006 04:00 1.4 C 89 % 1012.1 hPa 0.6 l/m 18.9 km/h (3 Bft) W-NW 0.00 h 0 W/m -0.1 C -3.2 C
09.02.2006 05:00 1.3 C 92 % 1012.2 hPa 0.0 l/m 10.8 km/h (2 Bft) W-NW 0.00 h 0 W/m 0.1 C -1.7 C
09.02.2006 06:00 1.1 C 93 % 1012.2 hPa 0.0 l/m 0.6 km/h (0 Bft) W 0.00 h 0 W/m 0.1 C 1.0 C
09.02.2006 07:00 0.8 C 94 % 1012.2 hPa 0.3 l/m 1.8 km/h (1 Bft) SO 0.00 h 6 W/m -0.0 C 0.4 C
09.02.2006 08:00 1.1 C 93 % 1012.2 hPa 0.0 l/m 0.1 km/h (0 Bft) N 0.10 h 40 W/m 0.1 C 1.1 C
09.02.2006 09:00 1.4 C 93 % 1012.1 hPa 0.6 l/m 0.5 km/h (0 Bft) S 0.47 h 154 W/m 0.4 C 1.4 C
09.02.2006 10:00 2.7 C 84 % 1012.0 hPa 0.0 l/m 1.7 km/h (1 Bft) W-NW 0.27 h 200 W/m 0.3 C 2.3 C
09.02.2006 11:00 2.7 C 80 % 1011.5 hPa 0.0 l/m 7.2 km/h (2 Bft) SW 0.00 h 98 W/m -0.3 C 1.0 C
09.02.2006 12:00 2.6 C 80 % 1010.9 hPa 0.3 l/m 12.9 km/h (3 Bft) W-NW 0.00 h 88 W/m -0.5 C -0.3 C
09.02.2006 13:00 2.5 C 78 % 1010.9 hPa 0.3 l/m 23.7 km/h (4 Bft) W-NW 0.00 h 75 W/m -0.9 C -2.3 C
09.02.2006 14:00 2.6 C 79 % 1010.9 hPa 0.0 l/m 36.8 km/h (5 Bft) W-NW 0.17 h 207 W/m -0.6 C -3.6 C
09.02.2006 15:00 2.4 C 76 % 1011.0 hPa 0.0 l/m 40.0 km/h (6 Bft) W-NW 0.00 h 73 W/m -1.4 C -4.1 C
09.02.2006 16:00 0.6 C 78 % 1012.1 hPa 0.3 l/m 27.8 km/h (4 Bft) NW 0.00 h 27 W/m -2.8 C -5.2 C
09.02.2006 17:00 0.3 C 79 % 1013.1 hPa 0.0 l/m 22.9 km/h (4 Bft) W-NW 0.10 h 18 W/m -2.9 C -5.2 C
09.02.2006 18:00 0.4 C 80 % 1014.1 hPa 0.0 l/m 23.7 km/h (4 Bft) W-NW 0.00 h 0 W/m -2.7 C -5.2 C
09.02.2006 19:00 -0.1 C 82 % 1014.4 hPa 0.0 l/m 15.8 km/h (3 Bft) W 0.00 h 0 W/m -2.9 C -4.6 C
09.02.2006 20:00 -0.5 C 79 % 1015.0 hPa 0.0 l/m 11.5 km/h (2 Bft) W-NW 0.00 h 0 W/m -3.7 C -3.8 C
09.02.2006 21:00 -0.7 C 79 % 1015.6 hPa 0.0 l/m 15.5 km/h (3 Bft) W-NW 0.00 h 0 W/m -3.9 C -5.3 C
09.02.2006 22:00 -1.6 C 79 % 1015.9 hPa 0.0 l/m 5.2 km/h (1 Bft) S-SW 0.00 h 0 W/m -4.8 C -3.1 C
09.02.2006 23:00 -0.8 C 78 % 1016.6 hPa 0.0 l/m 3.2 km/h (1 Bft) W-NW 0.00 h 0 W/m -4.3 C -1.7 C
10.02.2006 00:00 -0.4 C 73 % 1016.6 hPa 0.0 l/m 5.1 km/h (1 Bft) W 0.00 h 0 W/m -4.5 C -1.7 C
10.02.2006 01:00 -0.3 C 71 % 1017.1 hPa 0.0 l/m 6.6 km/h (2 Bft) W-NW 0.00 h 0 W/m -4.9 C -2.3 C
10.02.2006 02:00 -0.5 C 71 % 1017.6 hPa 0.0 l/m 13.8 km/h (3 Bft) W-NW 0.00 h 0 W/m -5.0 C -4.5 C
10.02.2006 03:00 -0.9 C 71 % 1017.7 hPa 0.0 l/m 3.2 km/h (1 Bft) W 0.00 h 0 W/m -5.5 C -1.9 C
10.02.2006 04:00 -1.3 C 75 % 1017.7 hPa 0.0 l/m 4.0 km/h (1 Bft) SO 0.00 h 0 W/m -5.1 C -2.5 C
10.02.2006 05:00 -1.2 C 78 % 1017.7 hPa 0.0 l/m 3.5 km/h (1 Bft) S-SO 0.00 h 0 W/m -4.5 C -2.3 C
10.02.2006 06:00 -0.9 C 79 % 1018.0 hPa 0.0 l/m 1.1 km/h (1 Bft) O-NO 0.00 h 0 W/m -4.2 C -1.1 C
10.02.2006 07:00 -0.7 C 77 % 1018.7 hPa 0.0 l/m 4.5 km/h (1 Bft) W-NW 0.00 h 5 W/m -4.1 C -2.0 C
10.02.2006 08:00 -0.6 C 75 % 1019.1 hPa 0.0 l/m 11.3 km/h (2 Bft) W 0.00 h 33 W/m -4.4 C -4.0 C
10.02.2006 09:00 -0.1 C 73 % 1019.6 hPa 0.0 l/m 6.9 km/h (2 Bft) W 0.07 h 83 W/m -4.4 C -2.2 C
10.02.2006 10:00 0.3 C 72 % 1019.8 hPa 0.0 l/m 13.2 km/h (3 Bft) W-NW 0.00 h 133 W/m -4.3 C -3.0 C
10.02.2006 11:00 1.2 C 64 % 1020.5 hPa 0.0 l/m 15.8 km/h (3 Bft) W-NW 0.00 h 229 W/m -4.8 C -3.0 C
10.02.2006 12:00 1.4 C 56 % 1020.1 hPa 0.0 l/m 13.8 km/h (3 Bft) W 0.03 h 233 W/m -6.4 C -2.2 C
10.02.2006 13:00 1.5 C 52 % 1019.7 hPa 0.0 l/m 14.4 km/h (3 Bft) W-NW 0.00 h 169 W/m -7.3 C -2.3 C
10.02.2006 14:00 1.6 C 56 % 1019.4 hPa 0.0 l/m 20.4 km/h (4 Bft) W-NW 0.00 h 139 W/m -6.3 C -3.2 C
10.02.2006 15:00 1.5 C 60 % 1020.4 hPa 0.0 l/m 13.7 km/h (3 Bft) W-NW 0.00 h 118 W/m -5.4 C -2.3 C
10.02.2006 16:00 0.9 C 67 % 1020.5 hPa 0.0 l/m 17.3 km/h (3 Bft) W-NW 0.33 h 96 W/m -4.7 C -3.7 C
10.02.2006 17:00 0.4 C 73 % 1021.4 hPa 0.0 l/m 6.5 km/h (2 Bft) W-NW 0.00 h 22 W/m -3.8 C -1.5 C
10.02.2006 18:00 0.2 C 77 % 1021.7 hPa 0.0 l/m 2.5 km/h (1 Bft) W-NW 0.00 h 0 W/m -3.4 C -0.5 C
10.02.2006 19:00 0.4 C 74 % 1022.6 hPa 0.0 l/m 6.2 km/h (2 Bft) W-NW 0.00 h 0 W/m -3.8 C -1.4 C
10.02.2006 20:00 0.4 C 72 % 1022.7 hPa 0.0 l/m 6.6 km/h (2 Bft) W-NW 0.00 h 0 W/m -4.0 C -1.4 C
10.02.2006 21:00 0.3 C 73 % 1022.7 hPa 0.0 l/m 6.8 km/h (2 Bft) W-NW 0.00 h 0 W/m -4.0 C -1.6 C
10.02.2006 22:00 0.2 C 73 % 1023.1 hPa 0.0 l/m 2.0 km/h (1 Bft) NW 0.00 h 0 W/m -4.0 C -0.4 C
10.02.2006 23:00 0.1 C 75 % 1023.7 hPa 0.0 l/m 2.1 km/h (1 Bft) W-NW 0.00 h 0 W/m -3.8 C -0.6 C
11.02.2006 00:00 -0.0 C 76 % 1023.8 hPa 0.0 l/m 0.2 km/h (0 Bft) W-NW 0.00 h 0 W/m -3.7 C -0.0 C
11.02.2006 01:00 -0.0 C 76 % 1023.8 hPa 0.0 l/m 1.5 km/h (1 Bft) W-NW 0.00 h 0 W/m -3.7 C -0.3 C
11.02.2006 02:00 -0.2 C 79 % 1023.8 hPa 0.0 l/m 0.6 km/h (0 Bft) W 0.00 h 0 W/m -3.5 C -0.4 C
11.02.2006 03:00 -0.6 C 81 % 1024.5 hPa 0.0 l/m 0.2 km/h (0 Bft) W 0.00 h 0 W/m -3.4 C -0.6 C
11.02.2006 04:00 -0.7 C 82 % 1024.9 hPa 0.0 l/m 0.1 km/h (0 Bft) N 0.00 h 0 W/m -3.4 C -0.7 C
11.02.2006 05:00 -1.4 C 83 % 1025.0 hPa 0.0 l/m 0.3 km/h (0 Bft) O-SO 0.00 h 0 W/m -3.9 C -1.5 C
11.02.2006 06:00 -2.9 C 84 % 1026.1 hPa 0.0 l/m 0.6 km/h (0 Bft) NO 0.00 h 0 W/m -5.2 C -3.1 C
11.02.2006 07:00 -3.4 C 86 % 1026.4 hPa 0.0 l/m 3.0 km/h (1 Bft) NO 0.00 h 0 W/m -5.3 C -4.2 C
11.02.2006 08:00 -3.0 C 87 % 1027.4 hPa 0.0 l/m 0.0 km/h (0 Bft) N 0.57 h 150 W/m -4.9 C -3.0 C
11.02.2006 09:00 -1.9 C 79 % 1027.2 hPa 0.0 l/m 2.1 km/h (1 Bft) W-NW 1.00 h 276 W/m -5.1 C -2.6 C
11.02.2006 10:00 -0.1 C 63 % 1026.9 hPa 0.0 l/m 2.4 km/h (1 Bft) W-NW 1.00 h 381 W/m -6.3 C -0.7 C
11.02.2006 11:00 1.9 C 56 % 1026.6 hPa 0.0 l/m 5.5 km/h (1 Bft) O 1.00 h 464 W/m -6.0 C 0.5 C
11.02.2006 12:00 2.3 C 53 % 1026.4 hPa 0.0 l/m 9.2 km/h (2 Bft) O-NO 0.47 h 354 W/m -6.2 C -0.1 C
11.02.2006 13:00 2.1 C 51 % 1025.6 hPa 0.0 l/m 2.9 km/h (1 Bft) NO 0.07 h 197 W/m -6.8 C 1.5 C
11.02.2006 14:00 2.3 C 49 % 1025.5 hPa 0.0 l/m 4.4 km/h (1 Bft) O-NO 0.03 h 159 W/m -7.4 C 1.3 C
11.02.2006 15:00 2.6 C 48 % 1025.5 hPa 0.0 l/m 1.3 km/h (1 Bft) N-NO 0.07 h 157 W/m -7.2 C 2.4 C
11.02.2006 16:00 2.4 C 47 % 1025.5 hPa 0.0 l/m 0.9 km/h (0 Bft) NO 0.33 h 112 W/m -7.8 C 2.3 C
11.02.2006 17:00 0.8 C 53 % 1025.7 hPa 0.0 l/m 0.3 km/h (0 Bft) O 0.13 h 26 W/m -7.7 C 0.8 C
11.02.2006 18:00 -0.8 C 54 % 1026.6 hPa 0.0 l/m 0.1 km/h (0 Bft) N 0.00 h 0 W/m -8.8 C -0.8 C
11.02.2006 19:00 -1.7 C 59 % 1027.2 hPa 0.0 l/m 0.2 km/h (0 Bft) N-NO 0.00 h 0 W/m -8.5 C -1.7 C
11.02.2006 20:00 -2.6 C 63 % 1027.3 hPa 0.0 l/m 0.0 km/h (0 Bft) N 0.00 h 0 W/m -8.7 C -2.6 C
11.02.2006 21:00 -3.4 C 73 % 1028.1 hPa 0.0 l/m 0.0 km/h (0 Bft) N 0.00 h 0 W/m -7.6 C -3.4 C
11.02.2006 22:00 -4.6 C 75 % 1028.7 hPa 0.0 l/m 0.0 km/h (0 Bft) N 0.00 h 0 W/m -8.3 C -4.6 C
11.02.2006 23:00 -4.8 C 78 % 1028.7 hPa 0.0 l/m 0.0 km/h (0 Bft) N 0.00 h 0 W/m -8.0 C -4.8 C
12.02.2006 00:00 -5.6 C 80 % 1028.8 hPa 0.0 l/m 0.2 km/h (0 Bft) N 0.00 h 0 W/m -8.5 C -5.6 C
12.02.2006 01:00 -6.2 C 82 % 1028.9 hPa 0.0 l/m 0.0 km/h (0 Bft) N 0.00 h 0 W/m -8.8 C -6.2 C
12.02.2006 02:00 -6.8 C 83 % 1029.0 hPa 0.0 l/m 0.0 km/h (0 Bft) N 0.00 h 0 W/m -9.2 C -6.8 C
12.02.2006 03:00 -6.9 C 81 % 1029.0 hPa 0.0 l/m 0.0 km/h (0 Bft) N 0.00 h 0 W/m -9.6 C -6.9 C
12.02.2006 04:00 -7.6 C 80 % 1029.1 hPa 0.0 l/m 0.8 km/h (0 Bft) N 0.00 h 0 W/m -10.5 C -7.7 C
12.02.2006 05:00 -7.6 C 79 % 1029.5 hPa 0.0 l/m 0.0 km/h (0 Bft) N 0.00 h 0 W/m -10.6 C -7.6 C
12.02.2006 06:00 -5.7 C 82 % 1028.8 hPa 0.0 l/m 0.0 km/h (0 Bft) N 0.00 h 0 W/m -8.1 C -5.7 C
12.02.2006 07:00 -4.9 C 80 % 1029.4 hPa 0.0 l/m 0.0 km/h (0 Bft) N 0.00 h 4 W/m -7.8 C -4.9 C
12.02.2006 08:00 -4.2 C 76 % 1029.6 hPa 0.0 l/m 0.0 km/h (0 Bft) N 0.00 h 21 W/m -7.8 C -4.2 C
12.02.2006 09:00 -3.6 C 72 % 1029.5 hPa 0.0 l/m 0.2 km/h (0 Bft) N 0.00 h 59 W/m -8.0 C -3.6 C
12.02.2006 10:00 -3.1 C 71 % 1029.5 hPa 0.0 l/m 0.5 km/h (0 Bft) O 0.00 h 78 W/m -7.6 C -3.1 C
12.02.2006 11:00 -2.8 C 69 % 1029.4 hPa 0.0 l/m 0.3 km/h (0 Bft) O 0.00 h 104 W/m -7.7 C -2.9 C
12.02.2006 12:00 -2.3 C 67 % 1029.3 hPa 0.0 l/m 0.8 km/h (0 Bft) O 0.00 h 112 W/m -7.6 C -2.4 C
12.02.2006 13:00 -2.4 C 66 % 1028.7 hPa 0.0 l/m 1.4 km/h (1 Bft) W-NW 0.00 h 124 W/m -7.8 C -2.6 C
12.02.2006 14:00 -1.9 C 66 % 1028.1 hPa 0.0 l/m 1.1 km/h (1 Bft) W-NW 0.00 h 109 W/m -7.5 C -2.3 C
12.02.2006 15:00 -1.7 C 65 % 1027.2 hPa 0.0 l/m 0.0 km/h (0 Bft) N 0.00 h 109 W/m -7.5 C -1.7 C
12.02.2006 16:00 -1.6 C 65 % 1027.0 hPa 0.0 l/m 0.6 km/h (0 Bft) NO 0.00 h 50 W/m -7.3 C -1.8 C
12.02.2006 17:00 -2.0 C 67 % 1026.2 hPa 0.0 l/m 0.2 km/h (0 Bft) N 0.00 h 12 W/m -7.3 C -2.0 C
12.02.2006 18:00 -2.6 C 68 % 1026.8 hPa 0.0 l/m 0.0 km/h (0 Bft) N 0.00 h 0 W/m -7.6 C -2.6 C
12.02.2006 19:00 -3.2 C 70 % 1027.3 hPa 0.0 l/m 0.7 km/h (0 Bft) N 0.00 h 0 W/m -7.8 C -3.3 C
12.02.2006 20:00 -4.4 C 75 % 1027.6 hPa 0.0 l/m 2.7 km/h (1 Bft) O 0.00 h 0 W/m -8.1 C -5.1 C
12.02.2006 21:00 -5.4 C 78 % 1027.7 hPa 0.0 l/m 1.2 km/h (1 Bft) O 0.00 h 0 W/m -8.5 C -5.6 C
12.02.2006 22:00 -6.1 C 79 % 1027.8 hPa 0.0 l/m 0.7 km/h (0 Bft) O 0.00 h 0 W/m -9.2 C -6.1 C
12.02.2006 23:00 -6.6 C 79 % 1027.9 hPa 0.0 l/m 0.0 km/h (0 Bft) N 0.00 h 0 W/m -9.6 C -6.6 C
Min-Datum _ 12.02.06 11.02.06 08.02.06 - 06.02.06 - - - 12.02.06 12.02.06
_ Min-Zeit 05:07 16:19 14:15 - 00:01 - - - 05:07 04:25
Minimum _ -8.2 C 41 % 1010.0 hPa - 0.0 km/h (0 Bft) - - - -11.3 C -10.7 C
Max-Datum _ 06.02.06 08.02.06 12.02.06 08.02.06 09.02.06 - 06.02.06 11.02.06 08.02.06 06.02.06
_ Max-Zeit 14:47 23:19 05:37 15:01 16:11 - 11:45 12:43 16:59 14:47
Maximum _ 4.2 C 96 % 1030.1 hPa 1.6 l/m 52.9 km/h
NW (7 Bft)
- 0.03 h 577 W/m 1.0 C 4.2 C
Durchschnitt _ -0.1 C 73 % 1022.2 hPa #8.4 l/m 5.1 km/h (1 Bft) W-NW #8:38 h 100 W/m -4.4 C -1.3 C
© Kaiko 2006